sensor_id;sensor_type;location;lat;lon;timestamp;P1;durP1;ratioP1;P2;durP2;ratioP2
44222;SDS011;29895;48.804;9.386;2023-06-22T00:00:52;16.27;;;10.57;;
44222;SDS011;29895;48.804;9.386;2023-06-22T00:03:19;13.98;;;10.80;;
44222;SDS011;29895;48.804;9.386;2023-06-22T00:05:46;16.00;;;10.65;;
44222;SDS011;29895;48.804;9.386;2023-06-22T00:08:12;17.60;;;10.35;;
44222;SDS011;29895;48.804;9.386;2023-06-22T00:10:38;13.50;;;10.20;;
44222;SDS011;29895;48.804;9.386;2023-06-22T00:13:04;13.95;;;10.43;;
44222;SDS011;29895;48.804;9.386;2023-06-22T00:15:31;14.25;;;10.55;;
44222;SDS011;29895;48.804;9.386;2023-06-22T00:17:57;15.63;;;10.88;;
44222;SDS011;29895;48.804;9.386;2023-06-22T00:20:23;16.35;;;11.20;;
44222;SDS011;29895;48.804;9.386;2023-06-22T00:22:56;12.32;;;9.50;;
44222;SDS011;29895;48.804;9.386;2023-06-22T00:25:22;16.75;;;9.93;;
44222;SDS011;29895;48.804;9.386;2023-06-22T00:27:48;17.67;;;10.75;;
44222;SDS011;29895;48.804;9.386;2023-06-22T00:30:18;14.98;;;10.73;;
44222;SDS011;29895;48.804;9.386;2023-06-22T00:32:44;18.15;;;10.43;;
44222;SDS011;29895;48.804;9.386;2023-06-22T00:35:11;14.80;;;9.85;;
44222;SDS011;29895;48.804;9.386;2023-06-22T00:37:37;12.93;;;10.85;;
44222;SDS011;29895;48.804;9.386;2023-06-22T00:40:06;16.35;;;10.38;;
44222;SDS011;29895;48.804;9.386;2023-06-22T00:42:33;14.55;;;10.02;;
44222;SDS011;29895;48.804;9.386;2023-06-22T00:44:59;15.95;;;10.20;;
44222;SDS011;29895;48.804;9.386;2023-06-22T00:47:25;11.88;;;9.38;;
44222;SDS011;29895;48.804;9.386;2023-06-22T00:49:51;14.68;;;10.90;;
44222;SDS011;29895;48.804;9.386;2023-06-22T00:52:17;14.20;;;10.63;;
44222;SDS011;29895;48.804;9.386;2023-06-22T00:54:50;13.85;;;10.48;;
44222;SDS011;29895;48.804;9.386;2023-06-22T00:57:16;13.50;;;10.10;;
44222;SDS011;29895;48.804;9.386;2023-06-22T00:59:44;11.13;;;9.90;;
44222;SDS011;29895;48.804;9.386;2023-06-22T01:02:10;13.65;;;10.75;;
44222;SDS011;29895;48.804;9.386;2023-06-22T01:04:37;14.90;;;9.98;;
44222;SDS011;29895;48.804;9.386;2023-06-22T01:09:34;15.95;;;9.82;;
44222;SDS011;29895;48.804;9.386;2023-06-22T01:12:06;13.07;;;9.30;;
44222;SDS011;29895;48.804;9.386;2023-06-22T01:14:42;14.10;;;10.02;;
44222;SDS011;29895;48.804;9.386;2023-06-22T01:17:12;14.93;;;10.85;;
44222;SDS011;29895;48.804;9.386;2023-06-22T01:19:49;17.73;;;10.00;;
44222;SDS011;29895;48.804;9.386;2023-06-22T01:22:21;13.95;;;9.57;;
44222;SDS011;29895;48.804;9.386;2023-06-22T01:25:09;15.05;;;10.35;;
44222;SDS011;29895;48.804;9.386;2023-06-22T01:27:59;14.57;;;10.13;;
44222;SDS011;29895;48.804;9.386;2023-06-22T01:30:45;17.42;;;10.73;;
44222;SDS011;29895;48.804;9.386;2023-06-22T01:33:13;14.10;;;11.15;;
44222;SDS011;29895;48.804;9.386;2023-06-22T01:35:40;17.40;;;10.95;;
44222;SDS011;29895;48.804;9.386;2023-06-22T01:38:06;16.17;;;10.73;;
44222;SDS011;29895;48.804;9.386;2023-06-22T01:40:34;15.52;;;10.48;;
44222;SDS011;29895;48.804;9.386;2023-06-22T01:43:02;13.32;;;10.07;;
44222;SDS011;29895;48.804;9.386;2023-06-22T01:45:28;17.27;;;11.90;;
44222;SDS011;29895;48.804;9.386;2023-06-22T01:47:55;17.40;;;11.43;;
44222;SDS011;29895;48.804;9.386;2023-06-22T01:50:21;13.77;;;10.75;;
44222;SDS011;29895;48.804;9.386;2023-06-22T01:52:47;15.00;;;11.02;;
44222;SDS011;29895;48.804;9.386;2023-06-22T01:55:12;13.57;;;10.63;;
44222;SDS011;29895;48.804;9.386;2023-06-22T01:57:38;15.95;;;10.77;;
44222;SDS011;29895;48.804;9.386;2023-06-22T02:00:05;13.40;;;10.85;;
44222;SDS011;29895;48.804;9.386;2023-06-22T02:05:10;17.00;;;10.80;;
44222;SDS011;29895;48.804;9.386;2023-06-22T02:07:41;18.02;;;11.15;;
44222;SDS011;29895;48.804;9.386;2023-06-22T02:10:11;17.77;;;10.93;;
44222;SDS011;29895;48.804;9.386;2023-06-22T02:12:40;17.80;;;10.98;;
44222;SDS011;29895;48.804;9.386;2023-06-22T02:15:08;16.60;;;10.40;;
44222;SDS011;29895;48.804;9.386;2023-06-22T02:17:35;16.73;;;11.45;;
44222;SDS011;29895;48.804;9.386;2023-06-22T02:20:04;17.90;;;11.55;;
44222;SDS011;29895;48.804;9.386;2023-06-22T02:22:32;15.38;;;10.75;;
44222;SDS011;29895;48.804;9.386;2023-06-22T02:24:58;15.75;;;10.75;;
44222;SDS011;29895;48.804;9.386;2023-06-22T02:27:24;16.15;;;10.30;;
44222;SDS011;29895;48.804;9.386;2023-06-22T02:29:49;14.32;;;10.80;;
44222;SDS011;29895;48.804;9.386;2023-06-22T02:32:15;14.90;;;10.13;;
44222;SDS011;29895;48.804;9.386;2023-06-22T02:34:42;16.23;;;10.63;;
44222;SDS011;29895;48.804;9.386;2023-06-22T02:37:12;14.52;;;11.02;;
44222;SDS011;29895;48.804;9.386;2023-06-22T02:39:39;16.80;;;11.10;;
44222;SDS011;29895;48.804;9.386;2023-06-22T02:42:05;19.08;;;11.30;;
44222;SDS011;29895;48.804;9.386;2023-06-22T02:44:31;19.13;;;10.93;;
44222;SDS011;29895;48.804;9.386;2023-06-22T02:46:57;24.85;;;10.88;;
44222;SDS011;29895;48.804;9.386;2023-06-22T02:49:23;16.83;;;11.05;;
44222;SDS011;29895;48.804;9.386;2023-06-22T02:51:48;15.70;;;11.25;;
44222;SDS011;29895;48.804;9.386;2023-06-22T02:54:15;19.35;;;10.85;;
44222;SDS011;29895;48.804;9.386;2023-06-22T02:56:41;17.80;;;10.80;;
44222;SDS011;29895;48.804;9.386;2023-06-22T02:59:09;18.42;;;12.10;;
44222;SDS011;29895;48.804;9.386;2023-06-22T03:01:36;17.80;;;11.20;;
44222;SDS011;29895;48.804;9.386;2023-06-22T03:04:08;16.92;;;11.00;;
44222;SDS011;29895;48.804;9.386;2023-06-22T03:06:34;16.33;;;11.10;;
44222;SDS011;29895;48.804;9.386;2023-06-22T03:09:01;17.17;;;11.55;;
44222;SDS011;29895;48.804;9.386;2023-06-22T03:11:29;16.35;;;11.90;;
44222;SDS011;29895;48.804;9.386;2023-06-22T03:13:58;17.45;;;11.85;;
44222;SDS011;29895;48.804;9.386;2023-06-22T03:16:24;14.45;;;11.70;;
44222;SDS011;29895;48.804;9.386;2023-06-22T03:18:50;16.70;;;11.45;;
44222;SDS011;29895;48.804;9.386;2023-06-22T03:21:16;17.63;;;11.32;;
44222;SDS011;29895;48.804;9.386;2023-06-22T03:23:42;15.75;;;11.50;;
44222;SDS011;29895;48.804;9.386;2023-06-22T03:26:08;18.58;;;11.15;;
44222;SDS011;29895;48.804;9.386;2023-06-22T03:28:34;16.60;;;11.68;;
44222;SDS011;29895;48.804;9.386;2023-06-22T03:31:00;18.85;;;10.73;;
44222;SDS011;29895;48.804;9.386;2023-06-22T03:33:25;14.48;;;11.30;;
44222;SDS011;29895;48.804;9.386;2023-06-22T03:35:51;15.98;;;10.80;;
44222;SDS011;29895;48.804;9.386;2023-06-22T03:38:17;14.65;;;10.98;;
44222;SDS011;29895;48.804;9.386;2023-06-22T03:40:42;19.67;;;10.32;;
44222;SDS011;29895;48.804;9.386;2023-06-22T03:43:08;16.95;;;10.75;;
44222;SDS011;29895;48.804;9.386;2023-06-22T03:45:36;18.80;;;10.68;;
44222;SDS011;29895;48.804;9.386;2023-06-22T03:48:02;17.38;;;11.02;;
44222;SDS011;29895;48.804;9.386;2023-06-22T03:50:28;15.98;;;11.60;;
44222;SDS011;29895;48.804;9.386;2023-06-22T03:52:54;14.85;;;11.20;;
44222;SDS011;29895;48.804;9.386;2023-06-22T03:55:20;14.25;;;11.13;;
44222;SDS011;29895;48.804;9.386;2023-06-22T03:57:46;17.20;;;10.50;;
44222;SDS011;29895;48.804;9.386;2023-06-22T04:00:12;17.55;;;12.00;;
44222;SDS011;29895;48.804;9.386;2023-06-22T04:02:40;15.90;;;11.15;;
44222;SDS011;29895;48.804;9.386;2023-06-22T04:05:06;17.58;;;11.25;;
44222;SDS011;29895;48.804;9.386;2023-06-22T04:07:33;14.75;;;11.18;;
44222;SDS011;29895;48.804;9.386;2023-06-22T04:09:59;15.13;;;10.35;;
44222;SDS011;29895;48.804;9.386;2023-06-22T04:12:24;18.75;;;10.40;;
44222;SDS011;29895;48.804;9.386;2023-06-22T04:14:50;17.85;;;10.40;;
44222;SDS011;29895;48.804;9.386;2023-06-22T04:17:15;14.77;;;9.88;;
44222;SDS011;29895;48.804;9.386;2023-06-22T04:19:42;15.52;;;10.05;;
44222;SDS011;29895;48.804;9.386;2023-06-22T04:22:08;13.80;;;9.38;;
44222;SDS011;29895;48.804;9.386;2023-06-22T04:24:35;17.27;;;9.75;;
44222;SDS011;29895;48.804;9.386;2023-06-22T04:27:00;12.45;;;8.77;;
44222;SDS011;29895;48.804;9.386;2023-06-22T04:29:27;13.25;;;8.55;;
44222;SDS011;29895;48.804;9.386;2023-06-22T04:31:56;12.93;;;9.18;;
44222;SDS011;29895;48.804;9.386;2023-06-22T04:34:28;14.45;;;9.32;;
44222;SDS011;29895;48.804;9.386;2023-06-22T04:36:54;11.32;;;9.15;;
44222;SDS011;29895;48.804;9.386;2023-06-22T04:39:20;16.60;;;9.55;;
44222;SDS011;29895;48.804;9.386;2023-06-22T04:41:46;16.67;;;9.75;;
44222;SDS011;29895;48.804;9.386;2023-06-22T04:44:12;13.73;;;9.23;;
44222;SDS011;29895;48.804;9.386;2023-06-22T04:46:50;13.73;;;9.07;;
44222;SDS011;29895;48.804;9.386;2023-06-22T04:49:24;11.98;;;9.00;;
44222;SDS011;29895;48.804;9.386;2023-06-22T04:51:58;13.48;;;9.02;;
44222;SDS011;29895;48.804;9.386;2023-06-22T04:54:24;17.35;;;9.48;;
44222;SDS011;29895;48.804;9.386;2023-06-22T04:56:49;14.82;;;9.10;;
44222;SDS011;29895;48.804;9.386;2023-06-22T04:59:24;14.85;;;9.77;;
44222;SDS011;29895;48.804;9.386;2023-06-22T05:01:58;12.38;;;9.25;;
44222;SDS011;29895;48.804;9.386;2023-06-22T05:04:25;15.95;;;9.20;;
44222;SDS011;29895;48.804;9.386;2023-06-22T05:06:53;12.88;;;9.57;;
44222;SDS011;29895;48.804;9.386;2023-06-22T05:09:20;14.52;;;9.27;;
44222;SDS011;29895;48.804;9.386;2023-06-22T05:11:46;14.38;;;10.23;;
44222;SDS011;29895;48.804;9.386;2023-06-22T05:14:11;13.20;;;9.07;;
44222;SDS011;29895;48.804;9.386;2023-06-22T05:16:41;15.20;;;9.27;;
44222;SDS011;29895;48.804;9.386;2023-06-22T05:19:07;15.38;;;9.18;;
44222;SDS011;29895;48.804;9.386;2023-06-22T05:21:33;14.95;;;9.32;;
44222;SDS011;29895;48.804;9.386;2023-06-22T05:23:59;16.83;;;9.73;;
44222;SDS011;29895;48.804;9.386;2023-06-22T05:26:27;15.32;;;9.25;;
44222;SDS011;29895;48.804;9.386;2023-06-22T05:29:00;15.82;;;9.80;;
44222;SDS011;29895;48.804;9.386;2023-06-22T05:31:27;15.48;;;9.73;;
44222;SDS011;29895;48.804;9.386;2023-06-22T05:33:53;15.57;;;10.25;;
44222;SDS011;29895;48.804;9.386;2023-06-22T05:36:20;14.27;;;9.20;;
44222;SDS011;29895;48.804;9.386;2023-06-22T05:38:49;18.45;;;9.73;;
44222;SDS011;29895;48.804;9.386;2023-06-22T05:41:16;17.65;;;9.48;;
44222;SDS011;29895;48.804;9.386;2023-06-22T05:43:42;17.40;;;10.13;;
44222;SDS011;29895;48.804;9.386;2023-06-22T05:46:08;12.20;;;9.73;;
44222;SDS011;29895;48.804;9.386;2023-06-22T05:48:34;18.23;;;10.15;;
44222;SDS011;29895;48.804;9.386;2023-06-22T05:50:59;14.63;;;9.27;;
44222;SDS011;29895;48.804;9.386;2023-06-22T05:53:25;13.38;;;9.25;;
44222;SDS011;29895;48.804;9.386;2023-06-22T05:55:51;18.38;;;9.10;;
44222;SDS011;29895;48.804;9.386;2023-06-22T05:58:16;15.73;;;9.07;;
44222;SDS011;29895;48.804;9.386;2023-06-22T06:00:42;16.52;;;8.90;;
44222;SDS011;29895;48.804;9.386;2023-06-22T06:03:08;14.57;;;8.43;;
44222;SDS011;29895;48.804;9.386;2023-06-22T06:05:35;11.25;;;7.97;;
44222;SDS011;29895;48.804;9.386;2023-06-22T06:08:02;16.20;;;8.77;;
44222;SDS011;29895;48.804;9.386;2023-06-22T06:10:33;14.07;;;8.55;;
44222;SDS011;29895;48.804;9.386;2023-06-22T06:13:00;10.55;;;7.93;;
44222;SDS011;29895;48.804;9.386;2023-06-22T06:15:29;10.13;;;7.45;;
44222;SDS011;29895;48.804;9.386;2023-06-22T06:17:56;18.77;;;9.38;;
44222;SDS011;29895;48.804;9.386;2023-06-22T06:20:23;11.98;;;8.43;;
44222;SDS011;29895;48.804;9.386;2023-06-22T06:22:50;9.45;;;7.30;;
44222;SDS011;29895;48.804;9.386;2023-06-22T06:25:16;11.30;;;7.32;;
44222;SDS011;29895;48.804;9.386;2023-06-22T06:27:45;12.73;;;7.80;;
44222;SDS011;29895;48.804;9.386;2023-06-22T06:30:12;11.27;;;7.40;;
44222;SDS011;29895;48.804;9.386;2023-06-22T06:32:40;13.55;;;7.40;;
44222;SDS011;29895;48.804;9.386;2023-06-22T06:35:07;8.73;;;6.65;;
44222;SDS011;29895;48.804;9.386;2023-06-22T06:37:37;12.27;;;7.57;;
44222;SDS011;29895;48.804;9.386;2023-06-22T06:40:05;14.45;;;7.25;;
44222;SDS011;29895;48.804;9.386;2023-06-22T06:42:38;13.77;;;8.25;;
44222;SDS011;29895;48.804;9.386;2023-06-22T06:45:07;9.65;;;6.97;;
44222;SDS011;29895;48.804;9.386;2023-06-22T06:47:33;10.60;;;7.43;;
44222;SDS011;29895;48.804;9.386;2023-06-22T06:49:59;14.23;;;7.20;;
44222;SDS011;29895;48.804;9.386;2023-06-22T06:52:25;14.35;;;6.47;;
44222;SDS011;29895;48.804;9.386;2023-06-22T06:54:51;9.40;;;7.10;;
44222;SDS011;29895;48.804;9.386;2023-06-22T06:57:17;10.57;;;7.03;;
44222;SDS011;29895;48.804;9.386;2023-06-22T06:59:43;11.32;;;6.95;;
44222;SDS011;29895;48.804;9.386;2023-06-22T07:02:09;9.93;;;6.35;;
44222;SDS011;29895;48.804;9.386;2023-06-22T07:04:34;9.05;;;6.68;;
44222;SDS011;29895;48.804;9.386;2023-06-22T07:07:01;10.90;;;6.68;;
44222;SDS011;29895;48.804;9.386;2023-06-22T07:09:27;9.25;;;6.78;;
44222;SDS011;29895;48.804;9.386;2023-06-22T07:11:52;15.65;;;7.18;;
44222;SDS011;29895;48.804;9.386;2023-06-22T07:14:18;13.35;;;6.13;;
44222;SDS011;29895;48.804;9.386;2023-06-22T07:16:44;14.88;;;7.25;;
44222;SDS011;29895;48.804;9.386;2023-06-22T07:19:11;12.02;;;6.50;;
44222;SDS011;29895;48.804;9.386;2023-06-22T07:21:38;13.95;;;6.78;;
44222;SDS011;29895;48.804;9.386;2023-06-22T07:24:04;9.60;;;6.18;;
44222;SDS011;29895;48.804;9.386;2023-06-22T07:26:31;13.95;;;7.13;;
44222;SDS011;29895;48.804;9.386;2023-06-22T07:28:57;9.40;;;6.10;;
44222;SDS011;29895;48.804;9.386;2023-06-22T07:31:24;10.50;;;6.00;;
44222;SDS011;29895;48.804;9.386;2023-06-22T07:33:49;10.10;;;6.20;;
44222;SDS011;29895;48.804;9.386;2023-06-22T07:36:16;15.05;;;6.30;;
44222;SDS011;29895;48.804;9.386;2023-06-22T07:38:42;13.85;;;5.90;;
44222;SDS011;29895;48.804;9.386;2023-06-22T07:41:08;9.63;;;6.88;;
44222;SDS011;29895;48.804;9.386;2023-06-22T07:43:34;10.48;;;5.90;;
44222;SDS011;29895;48.804;9.386;2023-06-22T07:46:02;11.10;;;5.47;;
44222;SDS011;29895;48.804;9.386;2023-06-22T07:48:28;10.00;;;5.43;;
44222;SDS011;29895;48.804;9.386;2023-06-22T07:50:54;8.57;;;5.50;;
44222;SDS011;29895;48.804;9.386;2023-06-22T07:53:20;9.93;;;5.47;;
44222;SDS011;29895;48.804;9.386;2023-06-22T07:55:47;14.05;;;6.05;;
44222;SDS011;29895;48.804;9.386;2023-06-22T07:58:12;17.55;;;6.43;;
44222;SDS011;29895;48.804;9.386;2023-06-22T08:00:38;11.38;;;5.90;;
44222;SDS011;29895;48.804;9.386;2023-06-22T08:03:04;10.63;;;5.68;;
44222;SDS011;29895;48.804;9.386;2023-06-22T08:05:30;11.15;;;6.05;;
44222;SDS011;29895;48.804;9.386;2023-06-22T08:07:56;12.45;;;6.57;;
44222;SDS011;29895;48.804;9.386;2023-06-22T08:10:22;10.65;;;5.57;;
44222;SDS011;29895;48.804;9.386;2023-06-22T08:12:48;12.50;;;6.00;;
44222;SDS011;29895;48.804;9.386;2023-06-22T08:15:14;11.82;;;5.32;;
44222;SDS011;29895;48.804;9.386;2023-06-22T08:17:39;10.20;;;5.20;;
44222;SDS011;29895;48.804;9.386;2023-06-22T08:20:06;8.18;;;5.18;;
44222;SDS011;29895;48.804;9.386;2023-06-22T08:22:39;9.57;;;5.20;;
44222;SDS011;29895;48.804;9.386;2023-06-22T08:25:05;10.27;;;5.57;;
44222;SDS011;29895;48.804;9.386;2023-06-22T08:27:31;9.73;;;5.82;;
44222;SDS011;29895;48.804;9.386;2023-06-22T08:29:57;9.43;;;5.30;;
44222;SDS011;29895;48.804;9.386;2023-06-22T08:32:27;9.38;;;5.25;;
44222;SDS011;29895;48.804;9.386;2023-06-22T08:34:54;8.48;;;5.07;;
44222;SDS011;29895;48.804;9.386;2023-06-22T08:37:20;13.07;;;5.95;;
44222;SDS011;29895;48.804;9.386;2023-06-22T08:39:50;10.63;;;5.28;;
44222;SDS011;29895;48.804;9.386;2023-06-22T08:42:15;12.93;;;5.35;;
44222;SDS011;29895;48.804;9.386;2023-06-22T08:44:41;12.13;;;5.05;;
44222;SDS011;29895;48.804;9.386;2023-06-22T08:47:07;10.32;;;5.65;;
44222;SDS011;29895;48.804;9.386;2023-06-22T08:49:32;12.85;;;5.30;;
44222;SDS011;29895;48.804;9.386;2023-06-22T08:51:58;9.75;;;4.88;;
44222;SDS011;29895;48.804;9.386;2023-06-22T08:54:23;10.05;;;5.10;;
44222;SDS011;29895;48.804;9.386;2023-06-22T08:56:49;9.63;;;5.53;;
44222;SDS011;29895;48.804;9.386;2023-06-22T08:59:15;7.97;;;5.05;;
44222;SDS011;29895;48.804;9.386;2023-06-22T09:01:40;9.25;;;4.60;;
44222;SDS011;29895;48.804;9.386;2023-06-22T09:04:13;11.32;;;5.22;;
44222;SDS011;29895;48.804;9.386;2023-06-22T09:06:39;11.05;;;5.10;;
44222;SDS011;29895;48.804;9.386;2023-06-22T09:09:10;8.70;;;5.27;;
44222;SDS011;29895;48.804;9.386;2023-06-22T09:11:37;14.10;;;5.97;;
44222;SDS011;29895;48.804;9.386;2023-06-22T09:14:02;8.05;;;5.00;;
44222;SDS011;29895;48.804;9.386;2023-06-22T09:16:29;9.88;;;5.65;;
44222;SDS011;29895;48.804;9.386;2023-06-22T09:18:55;14.10;;;5.60;;
44222;SDS011;29895;48.804;9.386;2023-06-22T09:21:20;11.65;;;5.88;;
44222;SDS011;29895;48.804;9.386;2023-06-22T09:23:46;9.35;;;4.97;;
44222;SDS011;29895;48.804;9.386;2023-06-22T09:26:16;8.85;;;4.88;;
44222;SDS011;29895;48.804;9.386;2023-06-22T09:28:45;11.93;;;5.82;;
44222;SDS011;29895;48.804;9.386;2023-06-22T09:31:10;9.93;;;5.25;;
44222;SDS011;29895;48.804;9.386;2023-06-22T09:33:36;14.43;;;5.47;;
44222;SDS011;29895;48.804;9.386;2023-06-22T09:36:06;9.43;;;5.68;;
44222;SDS011;29895;48.804;9.386;2023-06-22T09:38:35;9.93;;;5.65;;
44222;SDS011;29895;48.804;9.386;2023-06-22T09:41:02;13.38;;;5.75;;
44222;SDS011;29895;48.804;9.386;2023-06-22T09:43:27;11.38;;;5.32;;
44222;SDS011;29895;48.804;9.386;2023-06-22T09:45:53;11.48;;;5.28;;
44222;SDS011;29895;48.804;9.386;2023-06-22T09:48:19;9.85;;;5.32;;
44222;SDS011;29895;48.804;9.386;2023-06-22T09:50:44;11.85;;;5.80;;
44222;SDS011;29895;48.804;9.386;2023-06-22T09:53:10;13.45;;;5.63;;
44222;SDS011;29895;48.804;9.386;2023-06-22T09:55:35;14.10;;;5.47;;
44222;SDS011;29895;48.804;9.386;2023-06-22T09:58:01;11.75;;;5.43;;
44222;SDS011;29895;48.804;9.386;2023-06-22T10:00:27;17.15;;;6.18;;
44222;SDS011;29895;48.804;9.386;2023-06-22T10:02:52;13.18;;;6.00;;
44222;SDS011;29895;48.804;9.386;2023-06-22T10:05:18;14.00;;;6.18;;
44222;SDS011;29895;48.804;9.386;2023-06-22T10:07:44;12.85;;;5.63;;
44222;SDS011;29895;48.804;9.386;2023-06-22T10:10:10;11.38;;;5.70;;
44222;SDS011;29895;48.804;9.386;2023-06-22T10:12:40;14.57;;;6.03;;
44222;SDS011;29895;48.804;9.386;2023-06-22T10:15:11;11.90;;;5.35;;
44222;SDS011;29895;48.804;9.386;2023-06-22T10:17:36;13.50;;;5.80;;
44222;SDS011;29895;48.804;9.386;2023-06-22T10:20:03;16.02;;;5.63;;
44222;SDS011;29895;48.804;9.386;2023-06-22T10:22:36;12.40;;;5.60;;
44222;SDS011;29895;48.804;9.386;2023-06-22T10:25:02;13.82;;;6.43;;
44222;SDS011;29895;48.804;9.386;2023-06-22T10:27:28;12.32;;;5.70;;
44222;SDS011;29895;48.804;9.386;2023-06-22T10:29:53;13.10;;;6.03;;
44222;SDS011;29895;48.804;9.386;2023-06-22T10:32:19;9.85;;;5.50;;
44222;SDS011;29895;48.804;9.386;2023-06-22T10:34:45;18.17;;;6.22;;
44222;SDS011;29895;48.804;9.386;2023-06-22T10:37:10;15.00;;;5.70;;
44222;SDS011;29895;48.804;9.386;2023-06-22T10:39:36;13.13;;;5.88;;
44222;SDS011;29895;48.804;9.386;2023-06-22T10:42:02;9.65;;;5.90;;
44222;SDS011;29895;48.804;9.386;2023-06-22T10:44:28;12.80;;;6.90;;
44222;SDS011;29895;48.804;9.386;2023-06-22T10:46:53;13.05;;;5.97;;
44222;SDS011;29895;48.804;9.386;2023-06-22T10:49:19;15.88;;;6.55;;
44222;SDS011;29895;48.804;9.386;2023-06-22T10:51:44;15.25;;;6.05;;
44222;SDS011;29895;48.804;9.386;2023-06-22T10:54:10;10.90;;;6.05;;
44222;SDS011;29895;48.804;9.386;2023-06-22T10:56:38;12.63;;;6.28;;
44222;SDS011;29895;48.804;9.386;2023-06-22T10:59:04;10.65;;;5.80;;
44222;SDS011;29895;48.804;9.386;2023-06-22T11:01:30;16.63;;;6.03;;
44222;SDS011;29895;48.804;9.386;2023-06-22T11:03:56;11.27;;;6.40;;
44222;SDS011;29895;48.804;9.386;2023-06-22T11:06:22;11.70;;;6.00;;
44222;SDS011;29895;48.804;9.386;2023-06-22T11:08:48;14.15;;;5.85;;
44222;SDS011;29895;48.804;9.386;2023-06-22T11:11:13;13.88;;;5.68;;
44222;SDS011;29895;48.804;9.386;2023-06-22T11:13:42;17.10;;;7.03;;
44222;SDS011;29895;48.804;9.386;2023-06-22T11:16:08;11.52;;;6.07;;
44222;SDS011;29895;48.804;9.386;2023-06-22T11:18:35;16.77;;;6.55;;
44222;SDS011;29895;48.804;9.386;2023-06-22T11:21:00;12.20;;;6.40;;
44222;SDS011;29895;48.804;9.386;2023-06-22T11:23:26;9.25;;;5.90;;
44222;SDS011;29895;48.804;9.386;2023-06-22T11:25:52;13.38;;;5.82;;
44222;SDS011;29895;48.804;9.386;2023-06-22T11:28:21;12.52;;;6.32;;
44222;SDS011;29895;48.804;9.386;2023-06-22T11:30:47;12.88;;;6.00;;
44222;SDS011;29895;48.804;9.386;2023-06-22T11:33:12;13.15;;;6.30;;
44222;SDS011;29895;48.804;9.386;2023-06-22T11:35:38;14.00;;;6.55;;
44222;SDS011;29895;48.804;9.386;2023-06-22T11:38:04;16.77;;;6.75;;
44222;SDS011;29895;48.804;9.386;2023-06-22T11:40:30;17.27;;;6.63;;
44222;SDS011;29895;48.804;9.386;2023-06-22T11:42:56;15.32;;;6.32;;
44222;SDS011;29895;48.804;9.386;2023-06-22T11:45:21;18.13;;;6.75;;
44222;SDS011;29895;48.804;9.386;2023-06-22T11:47:47;13.52;;;6.55;;
44222;SDS011;29895;48.804;9.386;2023-06-22T11:50:13;14.82;;;6.20;;
44222;SDS011;29895;48.804;9.386;2023-06-22T11:52:39;17.35;;;6.45;;
44222;SDS011;29895;48.804;9.386;2023-06-22T11:55:05;14.30;;;6.30;;
44222;SDS011;29895;48.804;9.386;2023-06-22T11:57:38;14.07;;;6.28;;
44222;SDS011;29895;48.804;9.386;2023-06-22T12:00:17;16.42;;;6.53;;
44222;SDS011;29895;48.804;9.386;2023-06-22T12:02:44;12.20;;;6.28;;
44222;SDS011;29895;48.804;9.386;2023-06-22T12:05:12;14.55;;;6.57;;
44222;SDS011;29895;48.804;9.386;2023-06-22T12:07:38;11.98;;;6.35;;
44222;SDS011;29895;48.804;9.386;2023-06-22T12:10:04;12.00;;;5.57;;
44222;SDS011;29895;48.804;9.386;2023-06-22T12:12:30;12.18;;;6.47;;
44222;SDS011;29895;48.804;9.386;2023-06-22T12:14:55;13.05;;;6.55;;
44222;SDS011;29895;48.804;9.386;2023-06-22T12:17:21;15.20;;;6.32;;
44222;SDS011;29895;48.804;9.386;2023-06-22T12:19:50;14.68;;;6.15;;
44222;SDS011;29895;48.804;9.386;2023-06-22T12:22:15;14.63;;;6.05;;
44222;SDS011;29895;48.804;9.386;2023-06-22T12:24:41;14.98;;;6.60;;
44222;SDS011;29895;48.804;9.386;2023-06-22T12:27:06;16.17;;;6.88;;
44222;SDS011;29895;48.804;9.386;2023-06-22T12:29:32;16.50;;;6.50;;
44222;SDS011;29895;48.804;9.386;2023-06-22T12:31:57;17.25;;;6.90;;
44222;SDS011;29895;48.804;9.386;2023-06-22T12:34:23;12.63;;;6.55;;
44222;SDS011;29895;48.804;9.386;2023-06-22T12:36:49;13.57;;;6.38;;
44222;SDS011;29895;48.804;9.386;2023-06-22T12:39:14;16.58;;;7.22;;
44222;SDS011;29895;48.804;9.386;2023-06-22T12:41:40;14.45;;;7.13;;
44222;SDS011;29895;48.804;9.386;2023-06-22T12:44:06;22.00;;;7.80;;
44222;SDS011;29895;48.804;9.386;2023-06-22T12:46:31;14.85;;;6.85;;
44222;SDS011;29895;48.804;9.386;2023-06-22T12:49:02;18.60;;;7.75;;
44222;SDS011;29895;48.804;9.386;2023-06-22T12:51:31;12.35;;;7.40;;
44222;SDS011;29895;48.804;9.386;2023-06-22T12:53:57;13.35;;;6.82;;
44222;SDS011;29895;48.804;9.386;2023-06-22T12:56:22;17.33;;;7.35;;
44222;SDS011;29895;48.804;9.386;2023-06-22T12:58:48;19.58;;;6.88;;
44222;SDS011;29895;48.804;9.386;2023-06-22T13:01:14;16.70;;;7.25;;
44222;SDS011;29895;48.804;9.386;2023-06-22T13:03:40;16.05;;;6.85;;
44222;SDS011;29895;48.804;9.386;2023-06-22T13:06:06;13.80;;;7.47;;
44222;SDS011;29895;48.804;9.386;2023-06-22T13:08:32;13.10;;;7.00;;
44222;SDS011;29895;48.804;9.386;2023-06-22T13:10:58;18.33;;;7.18;;
44222;SDS011;29895;48.804;9.386;2023-06-22T13:13:24;19.45;;;7.57;;
44222;SDS011;29895;48.804;9.386;2023-06-22T13:15:50;18.25;;;6.82;;
44222;SDS011;29895;48.804;9.386;2023-06-22T13:18:17;16.85;;;7.80;;
44222;SDS011;29895;48.804;9.386;2023-06-22T13:20:43;16.27;;;6.75;;
44222;SDS011;29895;48.804;9.386;2023-06-22T13:23:10;14.77;;;6.95;;
44222;SDS011;29895;48.804;9.386;2023-06-22T13:25:36;13.80;;;6.65;;
44222;SDS011;29895;48.804;9.386;2023-06-22T13:28:02;18.70;;;7.20;;
44222;SDS011;29895;48.804;9.386;2023-06-22T13:30:28;14.38;;;7.13;;
44222;SDS011;29895;48.804;9.386;2023-06-22T13:32:54;14.43;;;6.85;;
44222;SDS011;29895;48.804;9.386;2023-06-22T13:35:19;18.90;;;7.05;;
44222;SDS011;29895;48.804;9.386;2023-06-22T13:37:45;15.27;;;6.97;;
44222;SDS011;29895;48.804;9.386;2023-06-22T13:40:11;12.63;;;5.95;;
44222;SDS011;29895;48.804;9.386;2023-06-22T13:42:36;16.98;;;6.78;;
44222;SDS011;29895;48.804;9.386;2023-06-22T13:45:02;17.40;;;7.28;;
44222;SDS011;29895;48.804;9.386;2023-06-22T13:47:29;17.55;;;6.93;;
44222;SDS011;29895;48.804;9.386;2023-06-22T13:49:55;18.45;;;6.90;;
44222;SDS011;29895;48.804;9.386;2023-06-22T13:52:22;11.15;;;6.43;;
44222;SDS011;29895;48.804;9.386;2023-06-22T13:54:48;18.02;;;7.07;;
44222;SDS011;29895;48.804;9.386;2023-06-22T13:57:14;17.63;;;6.60;;
44222;SDS011;29895;48.804;9.386;2023-06-22T13:59:39;13.80;;;6.70;;
44222;SDS011;29895;48.804;9.386;2023-06-22T14:02:05;15.35;;;6.82;;
44222;SDS011;29895;48.804;9.386;2023-06-22T14:04:31;19.00;;;6.38;;
44222;SDS011;29895;48.804;9.386;2023-06-22T14:06:57;13.38;;;6.32;;
44222;SDS011;29895;48.804;9.386;2023-06-22T14:09:23;13.13;;;6.40;;
44222;SDS011;29895;48.804;9.386;2023-06-22T14:11:48;16.85;;;6.57;;
44222;SDS011;29895;48.804;9.386;2023-06-22T14:14:14;15.82;;;6.47;;
44222;SDS011;29895;48.804;9.386;2023-06-22T14:16:39;14.05;;;5.75;;
44222;SDS011;29895;48.804;9.386;2023-06-22T14:19:05;11.55;;;5.47;;
44222;SDS011;29895;48.804;9.386;2023-06-22T14:21:31;11.85;;;6.22;;
44222;SDS011;29895;48.804;9.386;2023-06-22T14:23:56;14.05;;;6.60;;
44222;SDS011;29895;48.804;9.386;2023-06-22T14:26:22;15.07;;;6.60;;
44222;SDS011;29895;48.804;9.386;2023-06-22T14:28:48;11.50;;;6.10;;
44222;SDS011;29895;48.804;9.386;2023-06-22T14:31:18;17.98;;;6.38;;
44222;SDS011;29895;48.804;9.386;2023-06-22T14:33:48;16.42;;;5.82;;
44222;SDS011;29895;48.804;9.386;2023-06-22T14:36:15;13.93;;;6.25;;